Time,TemperatureF,DewpointF,PressureIn,WindDirection,WindDirectionDegrees,WindSpeedMPH,WindSpeedGustMPH,Humidity,HourlyPrecipIn,Conditions,Clouds,dailyrainin,SoftwareType,DateUTC
2013-04-15 00:06:00,58.5,54.0,29.81,NNE,29,0.0,2.0,84,0.00,,,0.00,weatherlink.com 1.10,2013-04-15 05:06:00,
2013-04-15 00:21:00,58.4,54.0,29.83,East,90,0.0,4.0,85,0.00,,,0.00,weatherlink.com 1.10,2013-04-15 05:21:00,
2013-04-15 00:36:00,58.8,54.0,29.84,NE,47,0.0,2.0,85,0.00,,,0.00,weatherlink.com 1.10,2013-04-15 05:36:00,
2013-04-15 01:06:00,59.2,55.0,29.84,SSE,166,0.0,2.0,85,0.00,,,0.00,weatherlink.com 1.10,2013-04-15 06:06:00,
2013-04-15 01:21:00,59.0,54.0,29.84,SE,145,0.0,8.0,84,0.00,,,0.00,weatherlink.com 1.10,2013-04-15 06:21:00,
2013-04-15 01:51:00,58.2,54.0,29.83,South,179,0.0,3.0,86,0.00,,,0.00,weatherlink.com 1.10,2013-04-15 06:51:00,
2013-04-15 02:51:00,57.2,54.0,29.83,SE,140,0.0,2.0,88,0.00,,,0.00,weatherlink.com 1.10,2013-04-15 07:51:00,
2013-04-15 03:06:00,57.2,54.0,29.84,SE,132,0.0,2.0,89,0.00,,,0.00,weatherlink.com 1.10,2013-04-15 08:06:00,
2013-04-15 03:36:00,57.0,54.0,29.84,East,99,0.0,1.0,90,0.00,,,0.00,weatherlink.com 1.10,2013-04-15 08:36:00,
2013-04-15 03:52:00,56.6,54.0,29.84,East,91,0.0,1.0,90,0.00,,,0.00,weatherlink.com 1.10,2013-04-15 08:52:00,
2013-04-15 04:06:00,56.4,54.0,29.84,NE,53,0.0,1.0,91,0.00,,,0.00,weatherlink.com 1.10,2013-04-15 09:06:00,
2013-04-15 04:21:00,56.2,54.0,29.85,East,79,0.0,1.0,91,0.00,,,0.00,weatherlink.com 1.10,2013-04-15 09:21:00,
2013-04-15 04:36:00,56.2,54.0,29.85,North,356,0.0,1.0,92,0.00,,,0.00,weatherlink.com 1.10,2013-04-15 09:36:00,
2013-04-15 04:51:00,56.5,54.0,29.85,ESE,113,0.0,1.0,92,0.00,,,0.00,weatherlink.com 1.10,2013-04-15 09:51:00,
2013-04-15 05:06:00,56.5,54.0,29.85,ESE,113,0.0,1.0,91,0.00,,,0.00,weatherlink.com 1.10,2013-04-15 10:06:00,
2013-04-15 05:21:00,56.0,54.0,29.86,ESE,112,0.0,1.0,92,0.00,,,0.00,weatherlink.com 1.10,2013-04-15 10:21:00,
2013-04-15 05:36:00,56.0,54.0,29.86,ENE,71,0.0,1.0,93,0.00,,,0.00,weatherlink.com 1.10,2013-04-15 10:36:00,
2013-04-15 05:51:00,56.0,54.0,29.87,ENE,70,0.0,2.0,93,0.00,,,0.00,weatherlink.com 1.10,2013-04-15 10:51:00,
2013-04-15 06:21:00,55.4,54.0,29.88,SSE,156,0.0,0.0,94,0.00,,,0.00,weatherlink.com 1.10,2013-04-15 11:21:00,
2013-04-15 06:36:00,55.6,54.0,29.88,SW,221,0.0,4.0,94,0.00,,,0.00,weatherlink.com 1.10,2013-04-15 11:36:00,
2013-04-15 06:51:00,55.7,54.0,29.89,ENE,65,0.0,1.0,94,0.00,,,0.00,weatherlink.com 1.10,2013-04-15 11:51:00,
2013-04-15 07:21:00,56.9,55.0,29.90,South,185,0.0,3.0,94,0.00,,,0.00,weatherlink.com 1.10,2013-04-15 12:21:00,
2013-04-15 07:36:00,57.4,55.0,29.90,SSE,167,0.0,1.0,93,0.00,,,0.00,weatherlink.com 1.10,2013-04-15 12:36:00,
2013-04-15 08:21:00,59.1,57.0,29.91,SSW,201,0.0,5.0,92,0.00,,,0.00,weatherlink.com 1.10,2013-04-15 13:21:00,
2013-04-15 08:36:00,59.8,57.0,29.91,South,182,1.0,4.0,90,0.00,,,0.00,weatherlink.com 1.10,2013-04-15 13:36:00,
2013-04-15 08:52:00,60.7,58.0,29.91,North,350,0.0,6.0,89,0.00,,,0.00,weatherlink.com 1.10,2013-04-15 13:52:00,
2013-04-15 09:07:00,61.6,58.0,29.91,East,88,0.0,3.0,88,0.00,,,0.00,weatherlink.com 1.10,2013-04-15 14:07:00,
2013-04-15 09:22:00,62.5,59.0,29.92,WNW,297,1.0,4.0,87,0.00,,,0.00,weatherlink.com 1.10,2013-04-15 14:22:00,
2013-04-15 09:37:00,64.0,60.0,29.92,South,179,0.0,3.0,85,0.00,,,0.00,weatherlink.com 1.10,2013-04-15 14:37:00,
2013-04-15 09:52:00,64.8,60.0,29.92,SW,215,0.0,4.0,83,0.00,,,0.00,weatherlink.com 1.10,2013-04-15 14:52:00,
2013-04-15 10:07:00,66.1,60.0,29.92,WSW,248,2.0,6.0,80,0.00,,,0.00,weatherlink.com 1.10,2013-04-15 15:07:00,
2013-04-15 10:22:00,67.4,61.0,29.92,SW,214,1.0,3.0,79,0.00,,,0.00,weatherlink.com 1.10,2013-04-15 15:22:00,
2013-04-15 10:37:00,68.8,61.0,29.92,NE,53,0.0,4.0,75,0.00,,,0.00,weatherlink.com 1.10,2013-04-15 15:37:00,
2013-04-15 10:52:00,71.0,62.0,29.93,North,352,4.0,4.0,72,0.00,,,0.00,weatherlink.com 1.10,2013-04-15 15:52:00,
2013-04-15 11:07:00,71.9,62.0,29.92,West,281,0.0,3.0,71,0.00,,,0.00,weatherlink.com 1.10,2013-04-15 16:07:00,
2013-04-15 11:37:00,73.8,62.0,29.92,ENE,68,0.0,3.0,67,0.00,,,0.00,weatherlink.com 1.10,2013-04-15 16:37:00,
2013-04-15 11:52:00,74.6,62.0,29.91,ESE,117,1.0,5.0,65,0.00,,,0.00,weatherlink.com 1.10,2013-04-15 16:52:00,
2013-04-15 12:07:00,75.0,62.0,29.91,SW,218,0.0,9.0,65,0.00,,,0.00,weatherlink.com 1.10,2013-04-15 17:07:00,
2013-04-15 12:22:00,76.3,63.0,29.90,SSW,200,2.0,7.0,63,0.00,,,0.00,weatherlink.com 1.10,2013-04-15 17:22:00,
2013-04-15 12:52:00,78.0,61.0,29.89,ESE,104,2.0,5.0,57,0.00,,,0.00,weatherlink.com 1.10,2013-04-15 17:52:00,
2013-04-15 13:07:00,78.5,62.0,29.89,NW,325,1.0,8.0,58,0.00,,,0.00,weatherlink.com 1.10,2013-04-15 18:07:00,
2013-04-15 13:23:00,79.7,64.0,29.89,SW,221,1.0,6.0,58,0.00,,,0.00,weatherlink.com 1.10,2013-04-15 18:23:00,
2013-04-15 13:38:00,79.3,62.0,29.88,WNW,291,1.0,8.0,55,0.00,,,0.00,weatherlink.com 1.10,2013-04-15 18:38:00,
2013-04-15 13:53:00,79.1,61.0,29.88,SW,235,3.0,6.0,55,0.00,,,0.00,weatherlink.com 1.10,2013-04-15 18:53:00,
2013-04-15 14:08:00,80.3,62.0,29.87,NNW,329,2.0,4.0,54,0.00,,,0.00,weatherlink.com 1.10,2013-04-15 19:08:00,
2013-04-15 14:23:00,79.5,62.0,29.87,SW,219,1.0,6.0,56,0.00,,,0.00,weatherlink.com 1.10,2013-04-15 19:23:00,
2013-04-15 14:38:00,79.8,63.0,29.87,East,79,5.0,6.0,56,0.00,,,0.00,weatherlink.com 1.10,2013-04-15 19:38:00,
2013-04-15 14:53:00,79.7,62.0,29.86,South,187,0.0,7.0,55,0.00,,,0.00,weatherlink.com 1.10,2013-04-15 19:53:00,
2013-04-15 15:08:00,79.6,63.0,29.85,SW,220,1.0,7.0,57,0.00,,,0.00,weatherlink.com 1.10,2013-04-15 20:08:00,
2013-04-15 15:23:00,80.0,62.0,29.85,South,184,1.0,8.0,55,0.00,,,0.00,weatherlink.com 1.10,2013-04-15 20:23:00,
2013-04-15 15:38:00,80.1,62.0,29.84,West,261,2.0,7.0,55,0.00,,,0.00,weatherlink.com 1.10,2013-04-15 20:38:00,
2013-04-15 15:53:00,80.4,62.0,29.85,SSE,157,1.0,3.0,54,0.00,,,0.00,weatherlink.com 1.10,2013-04-15 20:53:00,
2013-04-15 16:08:00,80.8,63.0,29.84,WSW,250,1.0,4.0,54,0.00,,,0.00,weatherlink.com 1.10,2013-04-15 21:08:00,
2013-04-15 16:23:00,81.2,63.0,29.84,SSE,165,1.0,7.0,54,0.00,,,0.00,weatherlink.com 1.10,2013-04-15 21:23:00,
2013-04-15 16:38:00,81.8,61.0,29.83,SW,214,2.0,6.0,50,0.00,,,0.00,weatherlink.com 1.10,2013-04-15 21:38:00,
2013-04-15 16:53:00,81.9,61.0,29.83,SW,217,0.0,5.0,49,0.00,,,0.00,weatherlink.com 1.10,2013-04-15 21:53:00,
2013-04-15 17:08:00,81.4,60.0,29.83,SSE,165,0.0,4.0,48,0.00,,,0.00,weatherlink.com 1.10,2013-04-15 22:08:00,
2013-04-15 17:23:00,81.3,62.0,29.83,SSE,164,0.0,3.0,53,0.00,,,0.00,weatherlink.com 1.10,2013-04-15 22:23:00,
2013-04-15 17:38:00,80.6,61.0,29.83,ENE,65,1.0,4.0,51,0.00,,,0.00,weatherlink.com 1.10,2013-04-15 22:38:00,
2013-04-15 17:53:00,80.1,61.0,29.83,SSW,206,0.0,4.0,52,0.00,,,0.00,weatherlink.com 1.10,2013-04-15 22:53:00,
2013-04-15 18:08:00,79.3,60.0,29.83,SSW,193,0.0,3.0,52,0.00,,,0.00,weatherlink.com 1.10,2013-04-15 23:08:00,
2013-04-15 18:23:00,78.8,61.0,29.82,WSW,243,0.0,2.0,55,0.00,,,0.00,weatherlink.com 1.10,2013-04-15 23:23:00,
2013-04-15 18:38:00,78.5,60.0,29.82,SE,144,1.0,5.0,54,0.00,,,0.00,weatherlink.com 1.10,2013-04-15 23:38:00,
2013-04-15 18:53:00,77.7,61.0,29.83,South,187,0.0,1.0,57,0.00,,,0.00,weatherlink.com 1.10,2013-04-15 23:53:00,
2013-04-15 19:08:00,77.2,61.0,29.83,ENE,77,0.0,3.0,58,0.00,,,0.00,weatherlink.com 1.10,2013-04-16 00:08:00,
2013-04-15 19:23:00,76.9,61.0,29.83,SE,141,0.0,5.0,58,0.00,,,0.00,weatherlink.com 1.10,2013-04-16 00:23:00,
2013-04-15 19:38:00,76.1,62.0,29.84,SE,136,0.0,2.0,61,0.00,,,0.00,weatherlink.com 1.10,2013-04-16 00:38:00,
2013-04-15 19:53:00,75.4,62.0,29.84,SSE,160,0.0,4.0,63,0.00,,,0.00,weatherlink.com 1.10,2013-04-16 00:53:00,
2013-04-15 20:08:00,75.0,62.0,29.85,SSE,157,1.0,3.0,65,0.00,,,0.00,weatherlink.com 1.10,2013-04-16 01:08:00,
2013-04-15 20:23:00,74.4,62.0,29.86,SSE,155,1.0,3.0,66,0.00,,,0.00,weatherlink.com 1.10,2013-04-16 01:23:00,
2013-04-15 20:38:00,73.9,62.0,29.87,SE,143,3.0,4.0,67,0.00,,,0.00,weatherlink.com 1.10,2013-04-16 01:38:00,
2013-04-15 20:53:00,73.5,62.0,29.87,ENE,72,1.0,6.0,67,0.00,,,0.00,weatherlink.com 1.10,2013-04-16 01:53:00,
2013-04-15 21:08:00,72.8,62.0,29.88,SW,236,0.0,5.0,69,0.00,,,0.00,weatherlink.com 1.10,2013-04-16 02:08:00,
2013-04-15 21:23:00,72.3,62.0,29.89,NW,316,2.0,2.0,71,0.00,,,0.00,weatherlink.com 1.10,2013-04-16 02:23:00,
2013-04-15 21:38:00,71.7,62.0,29.89,SSE,158,0.0,3.0,72,0.00,,,0.00,weatherlink.com 1.10,2013-04-16 02:38:00,
2013-04-15 21:53:00,71.4,62.0,29.90,SSE,147,0.0,3.0,73,0.00,,,0.00,weatherlink.com 1.10,2013-04-16 02:53:00,
2013-04-15 22:08:00,71.3,63.0,29.90,ENE,57,0.0,4.0,74,0.00,,,0.00,weatherlink.com 1.10,2013-04-16 03:08:00,
2013-04-15 22:23:00,70.9,63.0,29.91,ESE,120,0.0,7.0,75,0.00,,,0.00,weatherlink.com 1.10,2013-04-16 03:23:00,
2013-04-15 22:38:00,70.4,63.0,29.90,SSE,147,0.0,5.0,77,0.00,,,0.00,weatherlink.com 1.10,2013-04-16 03:38:00,
2013-04-15 22:53:00,70.0,63.0,29.91,SSE,161,0.0,3.0,78,0.00,,,0.00,weatherlink.com 1.10,2013-04-16 03:53:00,
2013-04-15 23:08:00,69.9,63.0,29.91,SSE,151,0.0,6.0,79,0.00,,,0.00,weatherlink.com 1.10,2013-04-16 04:08:00,
2013-04-15 23:23:00,69.7,63.0,29.91,WSW,250,0.0,6.0,79,0.00,,,0.00,weatherlink.com 1.10,2013-04-16 04:23:00,
2013-04-15 23:38:00,69.5,63.0,29.90,South,172,0.0,2.0,80,0.00,,,0.00,weatherlink.com 1.10,2013-04-16 04:38:00,
2013-04-15 23:53:00,69.6,63.0,29.90,SE,146,3.0,5.0,80,0.00,,,0.00,weatherlink.com 1.10,2013-04-16 04:53:00,